Ness City, Kansas
Current Conditions -  °F | °C
As of 8:15 PM on Thursday 20 Nov 2014 (Local Time) from KHYS Reporting Station
Clear Clear  
Wind Chill: 23°   Ceiling: Unl
Heat Index: 30°   Visibility: 10mi
Dew Point: 16°   Wind: 8mph
Humidity: 55%   Direction: 110°ESE
Pressure: 30.1"   Gusts: NA
Location:  38.45°N, 99.91°W
Report Text: KHYS 210215Z AUTO 11007KT 10SM CLR M01/M09 A3010 RMK AO1
Loading
Personal Weather Stations






























Interactive Weather Map New forecast layout! Learn more

10-Day Weather Forecast

Advertisements
Track Severe Weather on mobile